Time;durP1;ratioP1;P1;durP2;ratioP2;P2;SDS_P1;SDS_P2;PMS_P1;PMS_P2;Temp;Humidity;BMP_temperature;BMP_pressure;BME280_temperature;BME280_humidity;BME280_pressure;Samples;Min_cycle;Max_cycle;Signal;HPM_P1;HPM_P2
2024/01/04 00:00:52;;;;;;;8.60;1.17;;;5.90;99.90;;;;;;5138913;27;20039;-74
2024/01/04 00:03:19;;;;;;;3.80;1.30;;;5.90;99.90;;;;;;5141965;27;20039;-76
2024/01/04 00:05:46;;;;;;;5.45;1.55;;;5.90;99.90;;;;;;5157763;27;20041;-75
2024/01/04 00:08:11;;;;;;;8.13;1.40;;;5.90;99.90;;;;;;5149284;27;20031;-75
2024/01/04 00:10:37;;;;;;;7.50;1.52;;;5.90;99.90;;;;;;5137492;27;20500;-75
2024/01/04 00:13:03;;;;;;;12.13;1.40;;;5.80;99.90;;;;;;5130233;27;20031;-76
2024/01/04 00:15:29;;;;;;;6.40;1.20;;;5.80;99.90;;;;;;5125318;27;20047;-75
2024/01/04 00:17:58;;;;;;;4.82;1.33;;;5.80;99.90;;;;;;5124045;27;20485;-74
2024/01/04 00:20:24;;;;;;;;;;;5.70;99.90;;;;;;5143032;27;20077;-75
2024/01/04 00:22:50;;;;;;;6.97;1.45;;;5.70;99.90;;;;;;5143455;27;19919;-74
2024/01/04 00:25:16;;;;;;;6.53;1.58;;;5.70;99.90;;;;;;5138737;27;20083;-75
2024/01/04 00:27:41;;;;;;;7.78;1.52;;;5.70;99.90;;;;;;5144691;27;20087;-74
2024/01/04 00:30:07;;;;;;;5.15;1.65;;;5.70;99.90;;;;;;5145097;27;20038;-74
2024/01/04 00:32:33;;;;;;;5.35;1.45;;;5.70;99.90;;;;;;5142299;27;20047;-75
2024/01/04 00:34:59;;;;;;;7.82;1.42;;;6.20;99.90;;;;;;5141889;27;20043;-75
2024/01/04 00:37:24;;;;;;;6.18;1.70;;;5.60;99.90;;;;;;5160042;27;20035;-75
2024/01/04 00:39:50;;;;;;;7.05;1.40;;;5.70;99.90;;;;;;5141949;27;20047;-75
2024/01/04 00:42:16;;;;;;;5.65;1.02;;;5.60;99.90;;;;;;5156121;27;20038;-74
2024/01/04 00:44:41;;;;;;;9.45;1.35;;;5.60;99.90;;;;;;5131095;27;20070;-75
2024/01/04 00:47:07;;;;;;;4.18;1.33;;;5.60;99.90;;;;;;5142287;27;20045;-74
2024/01/04 00:49:33;;;;;;;5.15;1.27;;;5.60;99.90;;;;;;5140362;27;20046;-74
2024/01/04 00:51:58;;;;;;;3.67;1.35;;;5.60;99.90;;;;;;5141427;27;20039;-75
2024/01/04 00:54:24;;;;;;;4.85;1.40;;;5.60;99.90;;;;;;5141006;27;20400;-75
2024/01/04 00:56:50;;;;;;;5.70;1.30;;;6.00;99.90;;;;;;5139145;27;20038;-75
2024/01/04 00:59:15;;;;;;;2.65;1.20;;;5.60;99.90;;;;;;5159293;27;20080;-75
2024/01/04 01:01:41;;;;;;;4.47;1.35;;;5.50;99.90;;;;;;5142345;27;20075;-74
2024/01/04 01:04:07;;;;;;;5.10;1.88;;;5.40;99.90;;;;;;5121781;27;20043;-76
2024/01/04 01:06:32;;;;;;;5.65;1.40;;;5.50;99.90;;;;;;5157616;27;20043;-75
2024/01/04 01:08:58;;;;;;;4.28;1.20;;;6.40;99.90;;;;;;5136225;27;20043;-75
2024/01/04 01:11:24;;;;;;;3.22;1.20;;;5.50;99.90;;;;;;5131875;27;20039;-74
2024/01/04 01:13:49;;;;;;;2.40;1.00;;;5.40;99.90;;;;;;5124542;27;20429;-75
2024/01/04 01:16:15;;;;;;;7.65;1.70;;;5.40;99.90;;;;;;5120258;27;20119;-75
2024/01/04 01:18:41;;;;;;;6.55;1.08;;;5.40;99.90;;;;;;5138277;27;20047;-74
2024/01/04 01:21:07;;;;;;;6.40;1.50;;;5.40;99.90;;;;;;5119982;27;20039;-75
2024/01/04 01:23:32;;;;;;;5.90;1.27;;;5.40;99.90;;;;;;5141482;27;20398;-75
2024/01/04 01:25:58;;;;;;;7.30;1.30;;;5.50;99.90;;;;;;5117939;27;20039;-74
2024/01/04 01:28:24;;;;;;;6.43;1.25;;;5.40;99.90;;;;;;5122473;27;20041;-75
2024/01/04 01:30:50;;;;;;;6.53;1.20;;;5.40;99.90;;;;;;5147400;27;20043;-75
2024/01/04 01:33:16;;;;;;;6.35;1.50;;;5.40;99.90;;;;;;5126844;27;20035;-74
2024/01/04 01:35:42;;;;;;;8.32;1.58;;;5.30;99.90;;;;;;5113229;27;20126;-75
2024/01/04 01:38:08;;;;;;;4.65;1.35;;;5.20;99.90;;;;;;5103492;27;20041;-75
2024/01/04 01:40:33;;;;;;;7.03;1.55;;;5.20;99.90;;;;;;5144287;27;20031;-76
2024/01/04 01:42:59;;;;;;;7.10;1.65;;;5.10;99.90;;;;;;5129607;27;20046;-75
2024/01/04 01:45:25;;;;;;;8.80;1.55;;;5.10;99.90;;;;;;5156853;27;20054;-74
2024/01/04 01:47:51;;;;;;;7.97;1.80;;;5.20;99.90;;;;;;5158601;27;20097;-75
2024/01/04 01:50:19;;;;;;;5.78;1.70;;;5.60;99.90;;;;;;5152104;27;20047;-74
2024/01/04 01:52:45;;;;;;;;;;;5.00;99.90;;;;;;5140376;27;20039;-74
2024/01/04 01:55:12;;;;;;;7.20;1.60;;;5.00;99.90;;;;;;5124689;27;20009;-74
2024/01/04 01:57:38;;;;;;;7.50;1.40;;;5.00;99.90;;;;;;5152334;27;20477;-76
2024/01/04 02:00:04;;;;;;;3.80;1.45;;;5.00;99.90;;;;;;5103288;27;20095;-75
2024/01/04 02:02:30;;;;;;;3.85;1.30;;;4.90;99.90;;;;;;5103225;27;20046;-77
2024/01/04 02:04:56;;;;;;;5.78;1.30;;;5.00;99.90;;;;;;5123937;27;20118;-75
2024/01/04 02:07:23;;;;;;;5.70;1.33;;;4.90;99.90;;;;;;5155098;27;20070;-75
2024/01/04 02:09:49;;;;;;;5.43;1.00;;;5.20;99.90;;;;;;5119750;27;20096;-76
2024/01/04 02:12:15;;;;;;;2.22;0.90;;;5.50;99.90;;;;;;5138422;27;20042;-75
2024/01/04 02:14:41;;;;;;;4.20;1.10;;;4.80;99.90;;;;;;5139205;27;20067;-75
2024/01/04 02:17:07;;;;;;;7.22;1.38;;;4.80;99.90;;;;;;5137321;27;20126;-74
2024/01/04 02:19:36;;;;;;;7.43;1.50;;;4.70;99.90;;;;;;5137490;27;20114;-75
2024/01/04 02:22:02;;;;;;;5.88;1.42;;;4.60;99.90;;;;;;5138990;27;20031;-75
2024/01/04 02:24:28;;;;;;;6.47;1.73;;;4.60;99.90;;;;;;5118886;27;20047;-74
2024/01/04 02:26:53;;;;;;;9.35;1.38;;;4.70;99.90;;;;;;5119032;27;20032;-75
2024/01/04 02:29:19;;;;;;;5.55;1.50;;;4.60;99.90;;;;;;5135557;27;20042;-74
2024/01/04 02:31:49;;;;;;;3.72;1.20;;;4.60;99.90;;;;;;5104045;27;20117;-76
2024/01/04 02:34:14;;;;;;;6.40;1.60;;;4.60;99.90;;;;;;5117917;27;20058;-76
2024/01/04 02:36:40;;;;;;;4.15;1.30;;;4.60;99.90;;;;;;5130296;27;20046;-74
2024/01/04 02:39:06;;;;;;;5.90;0.95;;;4.60;99.90;;;;;;5140151;27;20061;-76
2024/01/04 02:41:32;;;;;;;5.95;1.35;;;4.60;99.90;;;;;;5132176;27;20122;-75
2024/01/04 02:43:57;;;;;;;3.85;1.10;;;4.50;99.90;;;;;;5115478;27;20454;-75
2024/01/04 02:46:23;;;;;;;4.53;1.08;;;4.50;99.90;;;;;;5128980;27;20114;-76
2024/01/04 02:48:49;;;;;;;5.38;1.20;;;4.40;99.90;;;;;;5154454;27;20050;-74
2024/01/04 02:51:14;;;;;;;4.38;1.50;;;4.40;99.90;;;;;;5139850;27;20042;-75
2024/01/04 02:53:40;;;;;;;3.50;1.25;;;4.50;99.90;;;;;;5156961;27;20515;-75
2024/01/04 02:56:05;;;;;;;4.50;1.35;;;4.40;99.90;;;;;;5143338;27;20050;-75
2024/01/04 02:58:31;;;;;;;4.68;1.38;;;4.50;99.90;;;;;;5144616;27;20107;-75
2024/01/04 03:00:57;;;;;;;4.63;1.42;;;4.40;99.90;;;;;;5150650;27;20045;-75
2024/01/04 03:03:22;;;;;;;4.75;1.15;;;4.40;99.90;;;;;;5107261;27;20137;-74
2024/01/04 03:05:48;;;;;;;5.78;1.58;;;4.40;99.90;;;;;;5132742;27;20038;-74
2024/01/04 03:08:14;;;;;;;3.42;1.13;;;4.40;99.90;;;;;;5144517;27;20413;-75
2024/01/04 03:10:40;;;;;;;4.38;1.10;;;4.40;99.90;;;;;;5144431;27;20043;-76
2024/01/04 03:13:09;;;;;;;5.45;1.65;;;4.40;99.90;;;;;;5128574;28;20050;-76
2024/01/04 03:15:34;;;;;;;5.40;1.30;;;4.40;99.90;;;;;;5129293;28;20047;-76
2024/01/04 03:18:03;;;;;;;12.73;1.73;;;4.40;99.90;;;;;;5130603;27;20136;-76
2024/01/04 03:20:32;;;;;;;6.25;1.30;;;4.40;99.90;;;;;;5127774;28;20055;-75
2024/01/04 03:22:58;;;;;;;3.13;1.08;;;4.30;99.90;;;;;;5149628;27;20042;-75
2024/01/04 03:25:23;;;;;;;5.40;1.30;;;4.30;99.90;;;;;;5132631;27;20035;-75
2024/01/04 03:27:49;;;;;;;4.95;1.67;;;4.30;99.90;;;;;;5165361;27;20061;-76
2024/01/04 03:30:15;;;;;;;6.28;1.88;;;4.30;99.90;;;;;;5153302;27;20046;-75
2024/01/04 03:32:41;;;;;;;4.97;1.20;;;4.30;99.90;;;;;;5142000;27;20560;-74
2024/01/04 03:35:08;;;;;;;4.35;1.67;;;4.30;99.90;;;;;;5119922;28;20075;-75
2024/01/04 03:37:34;;;;;;;4.00;1.10;;;4.30;99.90;;;;;;5138878;28;20422;-75
2024/01/04 03:39:59;;;;;;;7.50;1.63;;;4.30;99.90;;;;;;5108648;27;20095;-76
2024/01/04 03:42:25;;;;;;;5.45;1.65;;;4.20;99.90;;;;;;5158858;27;20131;-77
2024/01/04 03:44:51;;;;;;;6.70;1.42;;;4.30;99.90;;;;;;5157837;27;20054;-74
2024/01/04 03:47:16;;;;;;;9.40;1.50;;;4.30;99.90;;;;;;5150913;27;20039;-76
2024/01/04 03:49:42;;;;;;;3.97;1.20;;;4.30;99.90;;;;;;5134910;28;20027;-76
2024/01/04 03:52:07;;;;;;;3.75;1.50;;;4.30;99.90;;;;;;5142063;27;20060;-76
2024/01/04 03:54:33;;;;;;;4.40;1.27;;;4.40;99.90;;;;;;5124500;27;20046;-75
2024/01/04 03:56:59;;;;;;;4.53;1.30;;;5.00;99.90;;;;;;5135260;27;20091;-76
2024/01/04 03:59:25;;;;;;;5.22;1.40;;;4.60;99.90;;;;;;5128406;28;20575;-75
2024/01/04 04:01:51;;;;;;;5.13;1.20;;;4.20;99.90;;;;;;5128125;28;20039;-75
2024/01/04 04:04:17;;;;;;;4.65;1.33;;;4.30;99.90;;;;;;5138782;28;20043;-75
2024/01/04 04:06:43;;;;;;;5.53;1.58;;;4.30;99.90;;;;;;5154924;27;20046;-74
2024/01/04 04:09:09;;;;;;;6.63;1.50;;;4.30;99.90;;;;;;5167558;27;20038;-76
2024/01/04 04:11:34;;;;;;;5.10;1.58;;;4.30;99.90;;;;;;5154228;27;20051;-76
2024/01/04 04:14:00;;;;;;;4.90;1.42;;;4.30;99.90;;;;;;5148474;27;20031;-75
2024/01/04 04:16:26;;;;;;;8.43;1.73;;;4.90;99.90;;;;;;5128557;28;20051;-75
2024/01/04 04:18:52;;;;;;;8.60;1.70;;;4.30;99.90;;;;;;5129583;28;20043;-76
2024/01/04 04:21:22;;;;;;;6.60;1.67;;;4.30;99.90;;;;;;5128003;28;20022;-75
2024/01/04 04:23:51;;;;;;;5.50;1.40;;;4.30;99.90;;;;;;5146118;27;20068;-75
2024/01/04 04:26:20;;;;;;;4.15;1.40;;;4.30;99.90;;;;;;5129696;27;20043;-76
2024/01/04 04:28:48;;;;;;;4.57;1.40;;;4.20;99.90;;;;;;5130433;27;20051;-75
2024/01/04 04:31:15;;;;;;;3.28;1.30;;;4.20;99.90;;;;;;5130926;27;20442;-76
2024/01/04 04:33:43;;;;;;;4.78;1.17;;;4.20;99.90;;;;;;5128860;27;20032;-76
2024/01/04 04:36:12;;;;;;;3.60;1.27;;;4.20;99.90;;;;;;5147856;27;20047;-75
2024/01/04 04:38:38;;;;;;;6.35;1.65;;;4.10;99.90;;;;;;5144723;27;20039;-76
2024/01/04 04:41:05;;;;;;;5.78;1.48;;;4.10;99.90;;;;;;5144545;27;20039;-75
2024/01/04 04:43:32;;;;;;;3.35;1.02;;;4.20;99.90;;;;;;5123431;27;20035;-76
2024/01/04 04:45:57;;;;;;;4.57;1.27;;;4.40;99.90;;;;;;5141201;27;20055;-76
2024/01/04 04:48:24;;;;;;;5.38;1.30;;;4.10;99.90;;;;;;5161262;27;20037;-76
2024/01/04 04:50:55;;;;;;;6.18;1.10;;;4.20;99.90;;;;;;5160155;27;20400;-76
2024/01/04 04:53:23;;;;;;;4.45;1.27;;;4.10;99.90;;;;;;5126146;27;20030;-75
2024/01/04 04:55:50;;;;;;;9.43;1.60;;;4.20;99.90;;;;;;5141558;27;20062;-76
2024/01/04 04:58:15;;;;;;;4.65;1.40;;;4.20;99.90;;;;;;5128544;27;20078;-75
2024/01/04 05:00:41;;;;;;;6.63;1.33;;;4.20;99.90;;;;;;5120244;27;20035;-75
2024/01/04 05:03:07;;;;;;;7.40;1.30;;;4.20;99.90;;;;;;5106601;27;20381;-76
2024/01/04 05:05:33;;;;;;;3.38;1.17;;;4.30;99.90;;;;;;5124870;27;20043;-76
2024/01/04 05:07:59;;;;;;;4.93;1.30;;;4.20;99.90;;;;;;5106062;27;20046;-76
2024/01/04 05:10:25;;;;;;;5.32;1.35;;;4.20;99.90;;;;;;5107705;27;20102;-75
2024/01/04 05:12:54;;;;;;;5.63;1.77;;;4.20;99.90;;;;;;5103881;27;20114;-76
2024/01/04 05:15:21;;;;;;;6.25;1.70;;;4.20;99.90;;;;;;5153144;27;20047;-76
2024/01/04 05:17:47;;;;;;;6.85;1.63;;;4.20;99.90;;;;;;5159794;27;20426;-76
2024/01/04 05:20:15;;;;;;;7.43;1.60;;;4.10;99.90;;;;;;5150856;27;20031;-76
2024/01/04 05:22:41;;;;;;;4.82;1.35;;;4.10;99.90;;;;;;5140781;27;20121;-75
2024/01/04 05:25:07;;;;;;;4.40;1.30;;;4.20;99.90;;;;;;5160114;27;20095;-75
2024/01/04 05:27:34;;;;;;;5.47;1.25;;;4.10;99.90;;;;;;5137480;27;20055;-76
2024/01/04 05:30:02;;;;;;;6.13;1.40;;;4.00;99.90;;;;;;5121184;27;20040;-76
2024/01/04 05:32:28;;;;;;;4.37;1.30;;;4.00;99.90;;;;;;5103485;27;20114;-75
2024/01/04 05:34:54;;;;;;;7.03;1.48;;;4.00;99.90;;;;;;5121203;27;20067;-75
2024/01/04 05:37:19;;;;;;;5.65;1.48;;;4.00;99.90;;;;;;5104259;27;20039;-74
2024/01/04 05:39:46;;;;;;;5.47;1.60;;;3.90;99.90;;;;;;5138741;27;20059;-76
2024/01/04 05:42:14;;;;;;;4.78;1.27;;;3.90;99.90;;;;;;5106422;27;20047;-76
2024/01/04 05:44:40;;;;;;;6.40;1.42;;;3.80;99.90;;;;;;5140191;27;20062;-76
2024/01/04 05:47:07;;;;;;;4.40;1.92;;;3.80;99.90;;;;;;5106539;27;20047;-75
2024/01/04 05:49:32;;;;;;;4.32;1.38;;;3.80;99.90;;;;;;5105626;27;20485;-75
2024/01/04 05:51:58;;;;;;;6.60;1.52;;;3.80;99.90;;;;;;5139071;27;20039;-75
2024/01/04 05:54:24;;;;;;;3.00;1.30;;;3.80;99.90;;;;;;5139697;27;20072;-75
2024/01/04 05:56:49;;;;;;;4.68;1.70;;;3.80;99.90;;;;;;5147312;27;20134;-76
2024/01/04 05:59:15;;;;;;;7.20;1.77;;;3.70;99.90;;;;;;5159421;27;20419;-75
2024/01/04 06:01:41;;;;;;;8.25;1.48;;;3.70;99.90;;;;;;5123414;27;20114;-75
2024/01/04 06:04:07;;;;;;;5.55;1.38;;;3.70;99.90;;;;;;5155006;27;20042;-75
2024/01/04 06:06:33;;;;;;;5.63;1.50;;;3.70;99.90;;;;;;5138736;27;20126;-75
2024/01/04 06:08:58;;;;;;;7.95;1.85;;;4.50;99.90;;;;;;5103078;27;20486;-75
2024/01/04 06:11:24;;;;;;;4.55;1.60;;;4.00;99.90;;;;;;5141310;27;20030;-76
2024/01/04 06:13:50;;;;;;;5.28;1.63;;;3.60;99.90;;;;;;5129856;27;20039;-74
2024/01/04 06:16:17;;;;;;;3.50;1.30;;;3.50;99.90;;;;;;5138702;27;20043;-75
2024/01/04 06:18:43;;;;;;;8.00;1.30;;;3.50;99.90;;;;;;5120612;27;20130;-75
2024/01/04 06:21:09;;;;;;;9.23;1.70;;;3.50;99.90;;;;;;5121612;27;20093;-76
2024/01/04 06:23:34;;;;;;;4.53;1.30;;;3.50;99.90;;;;;;5123086;27;20039;-76
2024/01/04 06:26:00;;;;;;;8.27;1.92;;;3.40;99.90;;;;;;5138783;27;20048;-75
2024/01/04 06:28:26;;;;;;;5.57;1.48;;;3.30;99.90;;;;;;5139038;27;20122;-75
2024/01/04 06:30:51;;;;;;;5.43;1.70;;;3.30;99.90;;;;;;5152159;27;20050;-76
2024/01/04 06:33:17;;;;;;;9.27;1.77;;;3.30;99.90;;;;;;5160495;27;20068;-76
2024/01/04 06:35:43;;;;;;;4.97;1.42;;;3.30;99.90;;;;;;5161719;27;20042;-75
2024/01/04 06:38:09;;;;;;;2.88;1.10;;;3.30;99.90;;;;;;5142242;27;20393;-76
2024/01/04 06:40:36;;;;;;;4.50;1.58;;;3.80;99.90;;;;;;5130018;27;20057;-76
2024/01/04 06:43:03;;;;;;;5.72;1.40;;;3.30;99.90;;;;;;5139088;27;20042;-75
2024/01/04 06:45:32;;;;;;;4.07;1.25;;;3.20;99.90;;;;;;5137631;27;20061;-75
2024/01/04 06:47:58;;;;;;;7.80;1.77;;;3.30;99.90;;;;;;5133892;27;20039;-76
2024/01/04 06:50:23;;;;;;;4.65;1.85;;;3.30;99.90;;;;;;5118264;27;20074;-76
2024/01/04 06:52:49;;;;;;;7.38;1.80;;;3.30;99.90;;;;;;5136139;27;20074;-76
2024/01/04 06:55:16;;;;;;;3.97;1.30;;;3.20;99.90;;;;;;5117819;27;20445;-75
2024/01/04 06:57:42;;;;;;;6.50;1.67;;;3.20;99.90;;;;;;5138159;27;20039;-74
2024/01/04 07:00:08;;;;;;;5.63;1.55;;;3.10;99.90;;;;;;5140453;27;20078;-75
2024/01/04 07:02:38;;;;;;;6.88;1.63;;;3.10;99.90;;;;;;5120831;27;20043;-75
2024/01/04 07:05:06;;;;;;;6.38;1.50;;;3.10;99.90;;;;;;5131701;27;20039;-75
2024/01/04 07:07:36;;;;;;;3.33;1.30;;;3.10;99.90;;;;;;5138584;27;20409;-75
2024/01/04 07:10:05;;;;;;;5.57;1.77;;;3.00;99.90;;;;;;5118825;27;20534;-75
2024/01/04 07:12:31;;;;;;;3.63;1.40;;;3.00;99.90;;;;;;5120918;27;20046;-75
2024/01/04 07:14:57;;;;;;;4.65;1.67;;;3.00;99.90;;;;;;5122604;28;20035;-75
2024/01/04 07:17:23;;;;;;;5.53;1.52;;;3.00;99.90;;;;;;5146106;27;20039;-75
2024/01/04 07:19:49;;;;;;;7.95;2.25;;;3.00;99.90;;;;;;5127694;27;20078;-75
2024/01/04 07:22:19;;;;;;;6.43;1.83;;;2.90;99.90;;;;;;5143746;27;20039;-75
2024/01/04 07:24:48;;;;;;;4.72;1.60;;;2.90;99.90;;;;;;5148752;27;20050;-74
2024/01/04 07:27:14;;;;;;;6.20;1.70;;;2.90;99.90;;;;;;5116510;27;20039;-74
2024/01/04 07:29:39;;;;;;;7.75;1.70;;;3.00;99.90;;;;;;5148695;27;20066;-75
2024/01/04 07:32:06;;;;;;;4.47;1.50;;;2.90;99.90;;;;;;5159212;27;20046;-76
2024/01/04 07:34:37;;;;;;;5.32;1.60;;;3.70;99.90;;;;;;5125138;28;20477;-75
2024/01/04 07:37:06;;;;;;;5.90;1.73;;;2.90;99.90;;;;;;5116182;27;20038;-75
2024/01/04 07:39:43;;;;;;;8.32;1.90;;;2.90;99.90;;;;;;5138364;27;20046;-76
2024/01/04 07:42:09;;;;;;;7.43;1.90;;;2.90;99.90;;;;;;5136140;28;20047;-75
2024/01/04 07:44:36;;;;;;;5.43;2.30;;;2.80;99.90;;;;;;5117931;28;20398;-75
2024/01/04 07:47:02;;;;;;;8.55;2.25;;;2.90;99.90;;;;;;5136635;28;20171;-75
2024/01/04 07:49:27;;;;;;;5.57;1.45;;;2.70;99.90;;;;;;5157175;27;20047;-74
2024/01/04 07:51:53;;;;;;;5.22;1.50;;;2.90;99.90;;;;;;5134354;28;20118;-75
2024/01/04 07:54:19;;;;;;;9.15;2.13;;;2.80;99.90;;;;;;5135201;28;20203;-75
2024/01/04 07:56:45;;;;;;;6.97;1.90;;;2.80;99.90;;;;;;5130949;28;20042;-75
2024/01/04 07:59:11;;;;;;;6.45;2.22;;;2.80;99.90;;;;;;5134854;28;20039;-76
2024/01/04 08:01:36;;;;;;;4.72;1.85;;;2.80;99.90;;;;;;5120551;27;20035;-76
2024/01/04 08:04:03;;;;;;;4.47;1.90;;;2.80;99.90;;;;;;5135229;27;20042;-76
2024/01/04 08:06:30;;;;;;;8.77;2.00;;;2.80;99.90;;;;;;5161328;27;20039;-75
2024/01/04 08:08:56;;;;;;;6.88;1.73;;;2.80;99.90;;;;;;5140872;27;20054;-75
2024/01/04 08:11:22;;;;;;;7.72;2.15;;;2.80;99.90;;;;;;5160678;27;20038;-74
2024/01/04 08:13:48;;;;;;;7.25;2.35;;;2.70;99.90;;;;;;5159277;27;20043;-76
2024/01/04 08:16:14;;;;;;;5.88;1.80;;;2.80;99.90;;;;;;5141767;27;20050;-75
2024/01/04 08:18:43;;;;;;;6.40;2.00;;;2.80;99.90;;;;;;5161252;27;20130;-75
2024/01/04 08:21:10;;;;;;;8.13;2.10;;;3.90;99.90;;;;;;5141593;27;20084;-75
2024/01/04 08:23:35;;;;;;;5.32;1.83;;;2.80;99.90;;;;;;5141193;27;20035;-75
2024/01/04 08:26:05;;;;;;;5.43;1.83;;;2.80;99.90;;;;;;5144067;27;20088;-74
2024/01/04 08:28:30;;;;;;;6.22;2.30;;;2.90;99.90;;;;;;5142608;27;20481;-75
2024/01/04 08:30:59;;;;;;;6.10;2.40;;;2.90;99.90;;;;;;5121894;27;20047;-75
2024/01/04 08:33:25;;;;;;;5.82;2.15;;;3.60;99.90;;;;;;5123554;27;20088;-75
2024/01/04 08:35:54;;;;;;;6.47;2.20;;;3.00;99.90;;;;;;5144195;27;20046;-74
2024/01/04 08:38:19;;;;;;;6.40;2.10;;;3.00;99.90;;;;;;5142472;27;20042;-75
2024/01/04 08:40:45;;;;;;;7.63;2.00;;;3.00;99.90;;;;;;5141469;27;20057;-74
2024/01/04 08:43:10;;;;;;;6.55;1.98;;;3.10;99.90;;;;;;5139355;27;20047;-75
2024/01/04 08:45:36;;;;;;;7.25;2.40;;;3.20;99.90;;;;;;5102917;27;20055;-75
2024/01/04 08:48:02;;;;;;;9.73;2.10;;;3.40;99.90;;;;;;5139751;27;20216;-73
2024/01/04 08:50:28;;;;;;;7.38;1.92;;;3.30;99.90;;;;;;5119698;27;20504;-75
2024/01/04 08:52:55;;;;;;;6.63;1.67;;;3.40;99.90;;;;;;5103277;27;20039;-75
2024/01/04 08:55:20;;;;;;;4.78;1.60;;;3.50;99.90;;;;;;5121395;27;20071;-75
2024/01/04 08:57:47;;;;;;;6.10;2.08;;;3.50;99.90;;;;;;5127414;27;20035;-75
2024/01/04 09:00:14;;;;;;;10.75;2.35;;;3.60;99.90;;;;;;5139073;27;20039;-75
2024/01/04 09:02:40;;;;;;;5.03;2.07;;;3.80;99.90;;;;;;5122938;27;20051;-75
2024/01/04 09:05:07;;;;;;;4.55;1.92;;;3.80;99.90;;;;;;5124088;27;20051;-76
2024/01/04 09:07:33;;;;;;;6.03;1.55;;;3.90;99.90;;;;;;5143978;27;20481;-76
2024/01/04 09:09:59;;;;;;;5.03;1.67;;;4.60;99.90;;;;;;5144218;27;20217;-75
2024/01/04 09:12:28;;;;;;;5.30;1.98;;;3.90;99.90;;;;;;5139550;27;20434;-76
2024/01/04 09:14:54;;;;;;;7.53;2.05;;;4.20;99.90;;;;;;5122122;27;20504;-74
2024/01/04 09:17:19;;;;;;;5.80;1.90;;;4.20;99.90;;;;;;5140608;27;20039;-75
2024/01/04 09:19:46;;;;;;;4.57;1.63;;;4.20;99.90;;;;;;5113486;27;20088;-75
2024/01/04 09:22:12;;;;;;;4.10;1.35;;;4.20;99.90;;;;;;5119392;27;20504;-76
2024/01/04 09:24:38;;;;;;;6.78;1.80;;;4.10;99.90;;;;;;5160376;27;20042;-74
2024/01/04 09:27:04;;;;;;;5.40;2.00;;;4.10;99.90;;;;;;5143483;27;20042;-74
2024/01/04 09:29:30;;;;;;;4.78;1.70;;;4.10;99.90;;;;;;5136252;27;20039;-75
2024/01/04 09:31:56;;;;;;;7.65;1.40;;;4.00;99.90;;;;;;5124856;27;20043;-75
2024/01/04 09:34:24;;;;;;;3.63;1.45;;;4.20;99.90;;;;;;5141336;27;20027;-75
2024/01/04 09:36:50;;;;;;;4.25;1.60;;;4.00;99.90;;;;;;5156656;27;20051;-74
2024/01/04 09:39:17;;;;;;;12.60;2.38;;;3.90;99.90;;;;;;5132680;27;20073;-75
2024/01/04 09:41:47;;;;;;;8.85;1.77;;;3.90;99.90;;;;;;5161773;27;20407;-75
2024/01/04 09:44:13;;;;;;;7.10;1.80;;;3.90;99.90;;;;;;5128552;27;20039;-75
2024/01/04 09:46:41;;;;;;;4.55;1.90;;;3.80;99.90;;;;;;5102523;27;20051;-75
2024/01/04 09:49:08;;;;;;;5.68;1.35;;;3.80;99.90;;;;;;5144283;27;20348;-74
2024/01/04 09:51:39;;;;;;;6.40;1.40;;;3.80;99.90;;;;;;5180033;27;20038;-74
2024/01/04 09:54:09;;;;;;;3.63;1.42;;;3.90;99.90;;;;;;5126060;27;20035;-75
2024/01/04 09:56:50;;;;;;;5.35;1.77;;;4.00;99.90;;;;;;5139877;27;20065;-74
2024/01/04 09:59:16;;;;;;;5.88;1.83;;;4.20;99.90;;;;;;5121928;27;20070;-74
2024/01/04 10:01:43;;;;;;;5.88;1.85;;;4.10;99.90;;;;;;5159474;27;20105;-76
2024/01/04 10:04:12;;;;;;;6.38;2.08;;;4.40;99.90;;;;;;5157458;27;20034;-75
2024/01/04 10:06:43;;;;;;;5.05;1.65;;;4.40;99.90;;;;;;5135471;27;20088;-75
2024/01/04 10:09:18;;;;;;;5.43;1.63;;;4.40;99.90;;;;;;5131864;27;20396;-74
2024/01/04 10:12:05;;;;;;;5.20;1.40;;;4.40;99.90;;;;;;5126002;27;20070;-76
2024/01/04 10:14:32;;;;;;;4.43;1.42;;;4.40;99.90;;;;;;5150632;27;20422;-75
2024/01/04 10:17:01;;;;;;;5.68;1.45;;;4.30;99.90;;;;;;5159104;27;20046;-76
2024/01/04 10:19:28;;;;;;;4.82;1.45;;;4.30;99.90;;;;;;5158052;27;20038;-76
2024/01/04 10:22:01;;;;;;;4.90;1.43;;;4.20;99.90;;;;;;5140312;27;20480;-75
2024/01/04 10:24:29;;;;;;;9.50;2.08;;;4.20;99.90;;;;;;5113093;27;20347;-76
2024/01/04 10:27:00;;;;;;;6.68;2.28;;;4.20;99.90;;;;;;5158255;27;20034;-75
2024/01/04 10:29:27;;;;;;;2.92;1.52;;;4.20;99.90;;;;;;5112694;27;20039;-75
2024/01/04 10:32:04;;;;;;;4.65;1.35;;;4.20;99.90;;;;;;5119672;27;20070;-75
2024/01/04 10:34:35;;;;;;;6.63;1.80;;;4.10;99.90;;;;;;5119673;27;20063;-75
2024/01/04 10:37:12;;;;;;;4.30;1.63;;;4.10;99.90;;;;;;5128268;27;20054;-76
2024/01/04 10:39:39;;;;;;;4.55;1.50;;;4.00;99.90;;;;;;5148046;27;20121;-74
2024/01/04 10:42:07;;;;;;;4.60;1.75;;;4.00;99.90;;;;;;5124196;27;20400;-74
2024/01/04 10:44:33;;;;;;;8.25;1.50;;;4.00;99.90;;;;;;5104209;27;20054;-74
2024/01/04 10:47:03;;;;;;;5.85;1.77;;;4.00;99.90;;;;;;5137160;27;20043;-75
2024/01/04 10:49:30;;;;;;;5.88;1.85;;;3.90;99.90;;;;;;5124895;27;20043;-74
2024/01/04 10:51:57;;;;;;;6.47;1.70;;;3.90;99.90;;;;;;5121404;27;20431;-75
2024/01/04 10:54:31;;;;;;;6.47;1.90;;;3.80;99.90;;;;;;5106916;27;20142;-74
2024/01/04 10:57:05;;;;;;;6.22;1.85;;;3.90;99.90;;;;;;5105034;27;20054;-75
2024/01/04 10:59:32;;;;;;;11.68;2.10;;;3.70;99.90;;;;;;5104734;27;20046;-75
2024/01/04 11:01:59;;;;;;;6.70;1.80;;;3.60;99.90;;;;;;5123867;27;20035;-75
2024/01/04 11:04:25;;;;;;;7.57;1.70;;;3.60;99.90;;;;;;5118850;27;20100;-74
2024/01/04 11:06:52;;;;;;;5.88;1.60;;;4.90;99.90;;;;;;5119064;27;20097;-75
2024/01/04 11:09:19;;;;;;;7.45;1.70;;;3.70;99.90;;;;;;5136345;27;20032;-74
2024/01/04 11:11:46;;;;;;;4.33;1.60;;;3.80;99.90;;;;;;5135169;27;20043;-74
2024/01/04 11:14:11;;;;;;;9.10;1.73;;;3.90;99.90;;;;;;5141060;27;20123;-74
2024/01/04 11:17:02;;;;;;;4.15;1.60;;;3.90;99.90;;;;;;5121642;27;20046;-75
2024/01/04 11:19:50;;;;;;;3.67;1.52;;;4.00;99.90;;;;;;5148392;27;20030;-75
2024/01/04 11:22:38;;;;;;;6.20;1.45;;;4.10;99.90;;;;;;5129868;27;20130;-75
2024/01/04 11:25:29;;;;;;;6.40;1.90;;;4.10;99.90;;;;;;5117975;27;20039;-76
2024/01/04 11:27:55;;;;;;;4.75;1.30;;;4.20;99.90;;;;;;5104864;27;20049;-75
2024/01/04 11:30:21;;;;;;;4.78;1.20;;;4.30;99.90;;;;;;5157606;27;20038;-75
2024/01/04 11:32:48;;;;;;;3.85;1.52;;;4.30;99.90;;;;;;5157462;27;20039;-75
2024/01/04 11:35:15;;;;;;;4.18;1.40;;;4.30;99.90;;;;;;5145316;27;20047;-74
2024/01/04 11:37:50;;;;;;;6.72;1.75;;;4.30;99.90;;;;;;5122660;27;20053;-74
2024/01/04 11:40:27;;;;;;;4.18;1.58;;;4.40;99.90;;;;;;5127590;27;20043;-75
2024/01/04 11:42:53;;;;;;;4.35;1.40;;;4.50;99.90;;;;;;5109933;27;20043;-75
2024/01/04 11:45:19;;;;;;;8.88;1.58;;;4.40;99.90;;;;;;5127214;27;20183;-75
2024/01/04 11:47:47;;;;;;;4.35;1.70;;;4.50;99.90;;;;;;5144470;27;20055;-75
2024/01/04 11:50:14;;;;;;;5.70;1.23;;;4.50;99.90;;;;;;5157869;27;20051;-75
2024/01/04 11:52:40;;;;;;;5.13;1.35;;;4.40;99.90;;;;;;5154511;27;20047;-76
2024/01/04 11:55:06;;;;;;;5.47;1.80;;;4.40;99.90;;;;;;5109655;27;20046;-76
2024/01/04 11:57:32;;;;;;;3.78;1.33;;;4.50;99.90;;;;;;5146043;27;20054;-74
2024/01/04 11:59:57;;;;;;;3.10;1.27;;;4.30;99.90;;;;;;5146702;27;20047;-75
2024/01/04 12:02:24;;;;;;;5.05;1.58;;;4.90;99.90;;;;;;5147395;27;20043;-75
2024/01/04 12:04:50;;;;;;;4.00;1.33;;;4.50;99.90;;;;;;5149817;27;20038;-75
2024/01/04 12:07:18;;;;;;;3.92;1.10;;;4.50;99.90;;;;;;5141673;27;20042;-75
2024/01/04 12:09:59;;;;;;;2.13;1.25;;;4.50;99.90;;;;;;5122038;27;20042;-74
2024/01/04 12:12:25;;;;;;;3.78;1.60;;;4.50;99.90;;;;;;5156476;27;20512;-76
2024/01/04 12:14:50;;;;;;;5.88;1.50;;;4.60;99.90;;;;;;5143401;27;20047;-75
2024/01/04 12:17:16;;;;;;;4.90;1.33;;;4.60;99.90;;;;;;5160646;27;20046;-75
2024/01/04 12:19:42;;;;;;;3.28;1.20;;;4.90;99.90;;;;;;5148091;27;20374;-75
2024/01/04 12:22:11;;;;;;;6.07;1.65;;;4.70;99.90;;;;;;5149932;27;20122;-75
2024/01/04 12:24:42;;;;;;;3.25;1.38;;;4.80;99.90;;;;;;5133364;27;20047;-75
2024/01/04 12:27:08;;;;;;;4.35;1.27;;;4.70;99.90;;;;;;5129476;27;20050;-76
2024/01/04 12:29:34;;;;;;;6.13;1.60;;;4.70;99.90;;;;;;5145941;27;20039;-75
2024/01/04 12:32:03;;;;;;;4.53;1.17;;;4.70;99.90;;;;;;5126591;27;20544;-76
2024/01/04 12:34:29;;;;;;;;;;;4.70;99.90;;;;;;5162441;27;20070;-75
2024/01/04 12:37:03;;;;;;;6.80;1.40;;;5.10;99.90;;;;;;5134168;27;20013;-75
2024/01/04 12:39:32;;;;;;;6.93;1.50;;;4.80;99.90;;;;;;5126268;27;20045;-75
2024/01/04 12:41:58;;;;;;;6.78;1.50;;;4.80;99.90;;;;;;5125264;27;20118;-75
2024/01/04 12:44:25;;;;;;;5.88;1.60;;;4.80;99.90;;;;;;5126386;27;20035;-76
2024/01/04 12:46:51;;;;;;;6.65;1.67;;;4.90;99.90;;;;;;5147404;27;20047;-76
2024/01/04 12:49:17;;;;;;;6.22;1.55;;;4.80;99.90;;;;;;5154549;27;20046;-76
2024/01/04 12:51:43;;;;;;;5.43;1.70;;;4.80;99.90;;;;;;5149306;27;20047;-76
2024/01/04 12:54:10;;;;;;;6.97;1.70;;;4.70;99.90;;;;;;5147454;27;20032;-75
2024/01/04 12:56:37;;;;;;;12.07;2.20;;;4.60;99.90;;;;;;5129704;27;20038;-75